Time;durP1;ratioP1;P1;durP2;ratioP2;P2;SDS_P1;SDS_P2;PMS_P1;PMS_P2;Temp;Humidity;BMP_temperature;BMP_pressure;BME280_temperature;BME280_humidity;BME280_pressure;Samples;Min_cycle;Max_cycle;Signal;HPM_P1;HPM_P2
2021/11/06 00:00:46;;;;;;;1.58;1.58;;;;;;;12.10;85.21;99648.84;6269077;22;20019;-74
2021/11/06 00:03:12;;;;;;;0.60;0.60;;;;;;;12.17;84.87;99653.56;6267853;22;20046;-73
2021/11/06 00:05:39;;;;;;;1.42;1.40;;;;;;;12.14;84.99;99648.53;6267730;22;20070;-72
2021/11/06 00:08:05;;;;;;;3.42;2.47;;;;;;;12.15;85.35;99649.38;6241588;22;20027;-74
2021/11/06 00:10:31;;;;;;;1.63;1.63;;;;;;;12.13;86.20;99656.50;6267966;22;20016;-73
2021/11/06 00:12:57;;;;;;;2.13;2.03;;;;;;;12.08;86.59;99656.78;6267142;22;20516;-72
2021/11/06 00:15:23;;;;;;;1.60;1.60;;;;;;;12.06;86.95;99656.06;6267507;22;20016;-74
2021/11/06 00:17:49;;;;;;;1.83;1.75;;;;;;;12.07;87.56;99662.13;6269043;22;20601;-74
2021/11/06 00:20:15;;;;;;;2.40;2.25;;;;;;;12.04;87.12;99651.84;6267343;22;20098;-73
2021/11/06 00:22:42;;;;;;;2.20;1.70;;;;;;;12.04;87.48;99646.63;6267554;22;20019;-72
2021/11/06 00:25:09;;;;;;;2.72;2.53;;;;;;;12.06;87.26;99668.28;6268685;22;20016;-74
2021/11/06 00:27:35;;;;;;;1.92;1.83;;;;;;;11.99;87.03;99660.84;6270755;22;20450;-74
2021/11/06 00:30:01;;;;;;;2.10;2.00;;;;;;;12.02;86.77;99654.56;6275520;22;20012;-73
2021/11/06 00:32:29;;;;;;;16.98;2.15;;;;;;;12.04;86.45;99657.94;6281218;22;21959;-73
2021/11/06 00:34:55;;;;;;;2.17;2.08;;;;;;;11.98;86.45;99653.91;6283013;22;20022;-74
2021/11/06 00:37:21;;;;;;;2.00;1.90;;;;;;;11.97;86.19;99640.94;6273626;22;20095;-74
2021/11/06 00:39:47;;;;;;;2.35;2.25;;;;;;;12.07;85.85;99656.88;6272526;22;20023;-75
2021/11/06 00:42:13;;;;;;;2.10;2.03;;;;;;;12.09;85.52;99645.38;6271166;22;20116;-76
2021/11/06 00:44:39;;;;;;;2.30;2.20;;;;;;;12.06;86.08;99645.59;6272292;22;20020;-74
2021/11/06 00:47:04;;;;;;;3.05;2.08;;;;;;;12.07;85.53;99647.28;6271941;22;20077;-75
2021/11/06 00:49:31;;;;;;;1.80;1.77;;;;;;;12.09;84.99;99648.00;6272173;22;20094;-74
2021/11/06 00:51:56;;;;;;;2.58;2.38;;;;;;;12.11;84.89;99630.41;6271915;22;20039;-74
2021/11/06 00:54:22;;;;;;;3.55;2.70;;;;;;;12.04;85.73;99647.47;6270776;22;20055;-74
2021/11/06 00:56:48;;;;;;;1.67;1.63;;;;;;;11.98;85.94;99637.38;6271893;22;20020;-73
2021/11/06 00:59:15;;;;;;;3.25;3.00;;;;;;;11.95;85.89;99634.94;6244881;22;20027;-74
2021/11/06 01:01:41;;;;;;;2.13;2.03;;;;;;;11.93;85.84;99634.22;6270084;22;20027;-75
2021/11/06 01:04:07;;;;;;;4.22;2.88;;;;;;;11.90;86.20;99637.03;6270222;22;20020;-72
2021/11/06 01:06:33;;;;;;;2.80;2.70;;;;;;;11.90;85.58;99640.50;6271987;22;20023;-74
2021/11/06 01:08:59;;;;;;;2.90;2.65;;;;;;;11.88;85.40;99641.50;6271722;22;20019;-74
2021/11/06 01:11:25;;;;;;;1.25;1.25;;;;;;;11.85;85.07;99636.47;6270056;22;20026;-73
2021/11/06 01:13:51;;;;;;;1.60;1.50;;;;;;;11.81;85.47;99642.84;6269755;22;20429;-73
2021/11/06 01:16:18;;;;;;;2.15;1.80;;;;;;;11.85;84.42;99631.25;6270207;22;20023;-73
2021/11/06 01:18:44;;;;;;;1.63;1.58;;;;;;;11.89;83.66;99632.72;6272609;22;20015;-73
2021/11/06 01:21:09;;;;;;;2.17;2.08;;;;;;;11.87;83.35;99629.38;6272012;22;20568;-73
2021/11/06 01:23:36;;;;;;;3.95;2.65;;;;;;;11.87;82.62;99621.53;6271829;22;20022;-72
2021/11/06 01:26:02;;;;;;;3.90;3.22;;;;;;;11.90;82.10;99621.34;6271669;22;20015;-73
2021/11/06 01:28:29;;;;;;;3.75;3.33;;;;;;;11.87;82.12;99632.84;6270429;22;20026;-73
2021/11/06 01:30:56;;;;;;;1.55;1.55;;;;;;;11.82;81.41;99631.44;6269765;22;20066;-75
2021/11/06 01:33:22;;;;;;;3.10;2.90;;;;;;;11.74;81.38;99638.94;6270342;22;20026;-74
2021/11/06 01:35:48;;;;;;;2.25;2.15;;;;;;;11.81;80.13;99630.59;6270001;22;20039;-74
2021/11/06 01:38:14;;;;;;;6.38;2.30;;;;;;;11.85;79.46;99631.25;6272371;22;20050;-73
2021/11/06 01:40:40;;;;;;;2.70;2.60;;;;;;;11.77;79.92;99631.75;6270343;22;20438;-74
2021/11/06 01:43:06;;;;;;;2.47;2.38;;;;;;;11.76;79.85;99629.22;6244519;22;20356;-73
2021/11/06 01:45:32;;;;;;;1.42;1.42;;;;;;;11.69;80.53;99626.13;6271207;22;20016;-74
2021/11/06 01:47:59;;;;;;;2.17;2.08;;;;;;;11.66;79.89;99638.53;6271061;22;20128;-73
2021/11/06 01:50:25;;;;;;;2.58;2.38;;;;;;;11.61;80.12;99635.38;6271451;22;20020;-73
2021/11/06 01:52:51;;;;;;;2.83;2.70;;;;;;;11.68;79.33;99634.06;6271318;22;20521;-73
2021/11/06 01:55:18;;;;;;;3.60;3.40;;;;;;;11.57;80.19;99633.91;6271396;22;20050;-73
2021/11/06 01:57:44;;;;;;;2.47;2.35;;;;;;;11.46;80.59;99640.63;6269788;22;20256;-75
2021/11/06 02:00:12;;;;;;;11.38;3.65;;;;;;;11.43;80.79;99627.75;6269663;22;20016;-74
2021/11/06 02:02:42;;;;;;;2.67;2.53;;;;;;;11.36;80.74;99629.06;6269963;22;20024;-73
2021/11/06 02:05:09;;;;;;;1.63;1.53;;;;;;;11.41;79.63;99608.72;6269588;22;20456;-74
2021/11/06 02:07:35;;;;;;;2.78;2.58;;;;;;;11.57;78.08;99620.81;6270139;22;20023;-73
2021/11/06 02:10:02;;;;;;;2.55;2.45;;;;;;;11.48;78.30;99633.50;6270607;22;20035;-74
2021/11/06 02:12:28;;;;;;;2.90;2.45;;;;;;;11.38;78.88;99637.66;6269577;22;20091;-74
2021/11/06 02:14:54;;;;;;;1.90;1.80;;;;;;;11.32;79.39;99637.19;6269502;22;20102;-74
2021/11/06 02:17:21;;;;;;;4.80;2.88;;;;;;;11.23;80.04;99641.19;6271598;22;20015;-74
2021/11/06 02:19:46;;;;;;;1.73;1.63;;;;;;;11.27;79.02;99628.78;6271069;22;20051;-75
2021/11/06 02:22:13;;;;;;;6.40;2.30;;;;;;;11.20;79.35;99638.78;6271504;22;20370;-73
2021/11/06 02:24:39;;;;;;;1.48;1.38;;;;;;;11.16;79.21;99639.88;6271409;22;20050;-73
2021/11/06 02:27:05;;;;;;;3.25;3.05;;;;;;;11.16;79.44;99642.50;6269026;22;20089;-73
2021/11/06 02:29:33;;;;;;;2.88;2.60;;;;;;;11.06;80.08;99641.38;6271404;22;20016;-75
2021/11/06 02:31:59;;;;;;;3.03;2.83;;;;;;;11.04;79.67;99645.84;6270792;22;20020;-75
2021/11/06 02:34:25;;;;;;;3.28;3.08;;;;;;;10.94;79.98;99636.88;6271200;22;20030;-74
2021/11/06 02:36:51;;;;;;;2.55;2.45;;;;;;;10.87;79.64;99630.34;6269201;22;20016;-73
2021/11/06 02:39:17;;;;;;;3.28;2.22;;;;;;;10.92;80.20;99638.75;6270900;22;20023;-75
2021/11/06 02:41:44;;;;;;;1.88;1.88;;;;;;;10.84;79.69;99620.09;6268233;22;20737;-73
2021/11/06 02:44:12;;;;;;;2.63;2.42;;;;;;;10.87;78.39;99620.75;6268811;22;20051;-74
2021/11/06 02:46:38;;;;;;;2.65;2.42;;;;;;;10.90;79.09;99614.50;6269605;22;20371;-74
2021/11/06 02:49:05;;;;;;;2.47;2.38;;;;;;;10.75;79.21;99600.59;6270292;22;20534;-74
2021/11/06 02:51:31;;;;;;;1.80;1.80;;;;;;;10.79;79.38;99611.69;6217675;22;20451;-72
2021/11/06 02:53:57;;;;;;;3.65;2.17;;;;;;;10.77;79.69;99618.75;6269712;22;20027;-74
2021/11/06 02:56:25;;;;;;;2.00;1.90;;;;;;;10.71;79.47;99613.91;6268119;22;20016;-74
2021/11/06 02:58:50;;;;;;;3.58;3.38;;;;;;;10.66;79.50;99615.97;6268126;22;20020;-74
2021/11/06 03:01:17;;;;;;;2.75;2.65;;;;;;;10.64;79.70;99615.19;6270219;22;20034;-74
2021/11/06 03:03:43;;;;;;;1.67;1.67;;;;;;;10.61;79.60;99612.78;6271351;22;20588;-74
2021/11/06 03:06:09;;;;;;;2.55;2.42;;;;;;;10.57;79.60;99621.72;6270790;22;20012;-74
2021/11/06 03:08:35;;;;;;;2.55;2.35;;;;;;;10.50;79.87;99623.88;6271120;22;20020;-74
2021/11/06 03:11:01;;;;;;;3.80;2.90;;;;;;;10.44;79.79;99635.47;6270581;22;20058;-74
2021/11/06 03:13:27;;;;;;;2.05;1.92;;;;;;;10.41;80.25;99638.25;6271009;22;20024;-74
2021/11/06 03:15:53;;;;;;;2.88;2.13;;;;;;;10.39;80.29;99628.84;6270454;22;20020;-74
2021/11/06 03:18:19;;;;;;;1.45;1.45;;;;;;;10.35;80.93;99633.41;6269412;22;20020;-74
2021/11/06 03:20:45;;;;;;;2.38;2.25;;;;;;;10.32;81.38;99628.38;6270985;22;20019;-76
2021/11/06 03:23:11;;;;;;;2.08;1.98;;;;;;;10.28;81.31;99624.25;6271355;22;20019;-74
2021/11/06 03:25:37;;;;;;;1.98;1.88;;;;;;;10.23;81.29;99623.69;6269384;22;20541;-74
2021/11/06 03:28:03;;;;;;;0.93;0.93;;;;;;;10.23;81.89;99621.06;6243674;22;20015;-74
2021/11/06 03:30:29;;;;;;;3.20;1.92;;;;;;;10.16;81.87;99622.34;6269314;22;20024;-74
2021/11/06 03:32:55;;;;;;;1.27;1.27;;;;;;;10.12;80.87;99617.34;6270288;22;20089;-74
2021/11/06 03:35:22;;;;;;;2.45;2.35;;;;;;;10.07;79.76;99630.66;6270636;22;20538;-74
2021/11/06 03:37:47;;;;;;;1.13;1.13;;;;;;;10.05;79.20;99637.72;6269041;22;20039;-73
2021/11/06 03:40:14;;;;;;;2.45;2.03;;;;;;;9.92;77.84;99621.06;6269307;22;20015;-76
2021/11/06 03:42:40;;;;;;;3.05;2.25;;;;;;;9.82;76.95;99607.72;6271388;22;20030;-78
2021/11/06 03:45:07;;;;;;;1.13;1.13;;;;;;;9.75;75.32;99650.69;6269333;22;20047;-76
2021/11/06 03:47:34;;;;;;;0.98;0.98;;;;;;;9.66;72.34;99645.13;6271013;22;20019;-75
2021/11/06 03:50:00;;;;;;;2.88;2.10;;;;;;;9.52;71.76;99625.03;6270370;22;20026;-74
2021/11/06 03:52:26;;;;;;;2.08;1.25;;;;;;;9.45;70.09;99648.91;6269121;22;20015;-73
2021/11/06 03:54:52;;;;;;;0.60;0.60;;;;;;;9.35;69.46;99635.53;6269085;22;20022;-75
2021/11/06 03:57:18;;;;;;;0.85;0.85;;;;;;;9.26;68.86;99638.63;6270737;22;20102;-74
2021/11/06 03:59:44;;;;;;;0.70;0.70;;;;;;;9.14;68.94;99629.69;6271176;22;20020;-74
2021/11/06 04:02:10;;;;;;;1.15;1.10;;;;;;;9.13;68.99;99630.59;6269484;22;20019;-75
2021/11/06 04:04:36;;;;;;;5.00;1.10;;;;;;;8.95;70.33;99634.19;6278619;22;20026;-74
2021/11/06 04:07:02;;;;;;;0.93;0.85;;;;;;;8.96;69.31;99643.69;6281777;22;20027;-73
2021/11/06 04:09:28;;;;;;;0.80;0.80;;;;;;;8.90;69.62;99636.16;6274512;22;20020;-75
2021/11/06 04:11:54;;;;;;;0.68;0.68;;;;;;;8.80;69.83;99642.78;6271081;22;20016;-75
2021/11/06 04:14:21;;;;;;;0.80;0.80;;;;;;;8.78;69.52;99642.00;6270985;22;20022;-73
2021/11/06 04:16:47;;;;;;;1.30;1.30;;;;;;;8.80;69.56;99650.59;6271010;22;20624;-73
2021/11/06 04:19:12;;;;;;;1.42;1.42;;;;;;;8.77;69.88;99661.97;6244093;22;20016;-73
2021/11/06 04:21:40;;;;;;;1.15;1.15;;;;;;;8.70;70.26;99649.38;6270911;22;20479;-74
2021/11/06 04:24:06;;;;;;;0.75;0.75;;;;;;;8.63;70.33;99648.00;6270264;22;20018;-73
2021/11/06 04:26:32;;;;;;;0.82;0.82;;;;;;;8.70;70.01;99650.19;6269031;22;20016;-73
2021/11/06 04:28:58;;;;;;;1.45;1.45;;;;;;;8.67;70.13;99650.34;6270291;22;20012;-74
2021/11/06 04:31:24;;;;;;;1.00;1.00;;;;;;;8.62;70.60;99651.50;6268846;22;20016;-73
2021/11/06 04:33:50;;;;;;;1.40;1.40;;;;;;;8.57;70.83;99659.56;6270250;22;20026;-74
2021/11/06 04:36:17;;;;;;;1.40;1.30;;;;;;;8.52;71.10;99661.53;6268756;22;20102;-75
2021/11/06 04:38:43;;;;;;;1.02;1.02;;;;;;;8.47;71.66;99654.88;6270649;22;20107;-75
2021/11/06 04:41:09;;;;;;;0.95;0.95;;;;;;;8.46;71.72;99650.56;6243171;22;20095;-74
2021/11/06 04:43:37;;;;;;;1.30;1.30;;;;;;;8.43;71.44;99646.38;6269018;22;20094;-75
2021/11/06 04:46:03;;;;;;;0.90;0.90;;;;;;;8.43;71.93;99650.72;6270270;22;20011;-75
2021/11/06 04:48:29;;;;;;;0.80;0.80;;;;;;;8.38;71.83;99650.13;6218435;22;20015;-74
2021/11/06 04:50:56;;;;;;;1.67;0.88;;;;;;;8.48;71.39;99653.94;6268189;22;20481;-75
2021/11/06 04:53:23;;;;;;;0.95;0.95;;;;;;;8.46;71.40;99647.97;6274250;22;20071;-76
2021/11/06 04:55:49;;;;;;;0.80;0.80;;;;;;;8.38;71.87;99659.59;6274404;22;20015;-75
2021/11/06 04:58:16;;;;;;;2.60;1.85;;;;;;;8.35;71.64;99646.75;6273873;22;20022;-75
2021/11/06 05:00:42;;;;;;;0.65;0.65;;;;;;;8.40;71.66;99648.28;6277879;22;20026;-75
2021/11/06 05:03:11;;;;;;;1.23;1.23;;;;;;;8.35;71.58;99651.94;6224618;22;20105;-74
2021/11/06 05:05:37;;;;;;;0.60;0.60;;;;;;;8.33;71.85;99659.00;6272078;22;20024;-74
2021/11/06 05:08:03;;;;;;;1.52;1.52;;;;;;;8.32;72.14;99653.84;6247639;22;20042;-75
2021/11/06 05:10:30;;;;;;;0.68;0.68;;;;;;;8.35;71.91;99640.69;6276900;22;20035;-75
2021/11/06 05:12:55;;;;;;;1.25;1.25;;;;;;;8.33;72.59;99646.00;6287932;22;20562;-74
2021/11/06 05:15:22;;;;;;;1.65;1.65;;;;;;;8.36;71.73;99640.63;6284646;22;20038;-75
2021/11/06 05:17:47;;;;;;;1.00;1.00;;;;;;;8.37;72.76;99636.28;6287437;22;20024;-73
2021/11/06 05:20:13;;;;;;;1.15;1.15;;;;;;;8.29;73.09;99628.84;6284080;22;20093;-74
2021/11/06 05:22:40;;;;;;;1.13;1.13;;;;;;;8.28;72.89;99632.34;6251460;22;20451;-75
2021/11/06 05:25:07;;;;;;;2.53;2.33;;;;;;;8.34;72.34;99637.25;6255013;22;20016;-74
2021/11/06 05:27:33;;;;;;;1.90;1.77;;;;;;;8.33;72.67;99629.53;6258424;22;20230;-74
2021/11/06 05:30:00;;;;;;;0.82;0.82;;;;;;;8.31;73.23;99637.41;6284548;22;20079;-74
2021/11/06 05:32:26;;;;;;;1.13;1.13;;;;;;;8.33;72.54;99630.38;6286508;22;20043;-75
2021/11/06 05:34:52;;;;;;;29.42;1.95;;;;;;;8.30;73.08;99629.69;6283763;22;20072;-75
2021/11/06 05:37:18;;;;;;;1.73;1.63;;;;;;;8.30;73.50;99629.69;6254838;22;20020;-74
2021/11/06 05:39:45;;;;;;;1.25;1.25;;;;;;;8.25;73.69;99622.06;6285056;22;20015;-75
2021/11/06 05:42:10;;;;;;;1.38;1.38;;;;;;;8.23;73.88;99623.91;6283997;22;20018;-73
2021/11/06 05:44:37;;;;;;;1.52;1.52;;;;;;;8.19;73.02;99611.97;6284446;22;20035;-77
2021/11/06 05:47:03;;;;;;;1.05;1.05;;;;;;;8.21;73.55;99625.72;6282412;22;20035;-76
2021/11/06 05:49:29;;;;;;;1.02;1.02;;;;;;;8.21;73.82;99620.53;6281295;22;20016;-76
2021/11/06 05:51:55;;;;;;;1.63;1.52;;;;;;;8.23;73.06;99621.31;6271559;22;20023;-77
2021/11/06 05:54:21;;;;;;;0.98;0.73;;;;;;;8.31;73.08;99637.41;6271778;22;20081;-78
2021/11/06 05:56:47;;;;;;;2.45;2.25;;;;;;;8.32;72.80;99628.69;6270998;22;20509;-78
2021/11/06 05:59:13;;;;;;;1.60;1.50;;;;;;;8.49;72.87;99614.00;6270338;22;20016;-78
2021/11/06 06:01:38;;;;;;;2.13;2.03;;;;;;;8.46;73.29;99624.56;6270549;22;20673;-78
2021/11/06 06:04:04;;;;;;;1.15;1.15;;;;;;;8.44;73.15;99618.63;6271532;22;20070;-79
2021/11/06 06:06:30;;;;;;;1.10;1.10;;;;;;;8.38;72.44;99626.72;6271350;22;20020;-78
2021/11/06 06:08:56;;;;;;;0.77;0.77;;;;;;;8.35;73.71;99644.16;6271592;22;20023;-78
2021/11/06 06:11:23;;;;;;;0.90;0.90;;;;;;;8.31;72.89;99634.81;6270157;22;20073;-77
2021/11/06 06:13:49;;;;;;;0.95;0.95;;;;;;;8.31;73.21;99641.78;6271546;22;20535;-78
2021/11/06 06:16:15;;;;;;;1.73;1.63;;;;;;;8.32;72.91;99659.91;6269995;22;20600;-77
2021/11/06 06:18:44;;;;;;;1.73;1.63;;;;;;;8.30;73.06;99656.53;6271741;22;20016;-77
2021/11/06 06:21:11;;;;;;;2.22;1.40;;;;;;;8.25;73.29;99647.22;6245330;22;20019;-77
2021/11/06 06:23:37;;;;;;;1.13;1.13;;;;;;;8.27;73.81;99656.66;6271878;22;20012;-78
2021/11/06 06:26:03;;;;;;;1.02;1.02;;;;;;;8.28;72.87;99647.97;6271174;22;20072;-77
2021/11/06 06:28:29;;;;;;;1.67;1.67;;;;;;;8.33;72.99;99630.38;6271575;22;20023;-78
2021/11/06 06:30:54;;;;;;;1.38;1.38;;;;;;;8.29;73.26;99626.25;6244567;22;20023;-77
2021/11/06 06:33:20;;;;;;;1.08;1.08;;;;;;;8.27;73.81;99617.66;6271344;22;20023;-77
2021/11/06 06:35:47;;;;;;;0.82;0.82;;;;;;;8.23;73.17;99607.47;6271121;22;20363;-78
2021/11/06 06:38:13;;;;;;;0.80;0.80;;;;;;;8.20;72.96;99587.66;6269975;22;20670;-77
2021/11/06 06:40:39;;;;;;;0.55;0.55;;;;;;;8.19;73.21;99596.38;6271388;22;20023;-78
2021/11/06 06:43:06;;;;;;;0.77;0.77;;;;;;;8.16;72.67;99580.94;6270077;22;20408;-78
2021/11/06 06:45:32;;;;;;;1.98;1.88;;;;;;;8.18;73.60;99594.69;6270181;22;20429;-78
2021/11/06 06:47:58;;;;;;;0.82;0.82;;;;;;;8.17;73.55;99603.41;6270377;22;20074;-77
2021/11/06 06:50:24;;;;;;;0.80;0.68;;;;;;;8.14;73.08;99600.97;6271282;22;20020;-79
2021/11/06 06:52:51;;;;;;;1.52;1.42;;;;;;;8.21;72.88;99609.31;6269431;22;20027;-76
2021/11/06 06:55:17;;;;;;;1.63;1.60;;;;;;;8.22;73.24;99617.03;6269646;22;20016;-78
2021/11/06 06:57:43;;;;;;;0.52;0.52;;;;;;;8.18;73.26;99612.06;6244410;22;20027;-77
2021/11/06 07:00:12;;;;;;;4.20;1.48;;;;;;;8.13;73.60;99612.28;6269650;22;20019;-78
2021/11/06 07:02:38;;;;;;;1.33;1.23;;;;;;;8.13;73.46;99622.69;6271045;22;20020;-77
2021/11/06 07:05:05;;;;;;;0.77;0.77;;;;;;;8.13;73.64;99627.88;6269411;22;20431;-77
2021/11/06 07:07:31;;;;;;;2.00;1.90;;;;;;;8.06;72.71;99629.09;6269593;22;20062;-74
2021/11/06 07:09:57;;;;;;;1.15;1.15;;;;;;;8.10;73.42;99621.97;6270935;22;20015;-73
2021/11/06 07:12:25;;;;;;;0.70;0.70;;;;;;;8.05;74.19;99640.38;6269206;22;20065;-74
2021/11/06 07:14:54;;;;;;;1.40;1.40;;;;;;;8.08;74.93;99634.22;6270863;22;20020;-73
2021/11/06 07:20:50;;;;;;;2.15;1.95;;;;;;;8.06;74.21;99639.47;6249947;22;20042;-74
2021/11/06 07:23:16;;;;;;;2.15;1.58;;;;;;;8.06;73.72;99629.09;6265222;22;20471;-73
2021/11/06 07:25:42;;;;;;;1.70;1.60;;;;;;;8.09;74.34;99626.34;6241404;22;20019;-73
2021/11/06 07:28:08;;;;;;;1.08;1.08;;;;;;;8.08;74.28;99639.44;6267652;22;20049;-74
2021/11/06 07:30:34;;;;;;;2.53;1.98;;;;;;;8.11;74.68;99655.72;6266406;22;20046;-74
2021/11/06 07:33:00;;;;;;;1.02;1.02;;;;;;;8.12;73.96;99628.78;6266267;22;20566;-75
2021/11/06 07:35:26;;;;;;;0.82;0.82;;;;;;;8.19;73.82;99626.72;6268082;22;20074;-75
2021/11/06 07:37:52;;;;;;;3.10;1.15;;;;;;;8.21;73.86;99625.72;6215913;22;20026;-75
2021/11/06 07:40:19;;;;;;;1.30;1.30;;;;;;;8.25;73.65;99616.88;6268269;22;20409;-74
2021/11/06 07:42:46;;;;;;;1.00;1.00;;;;;;;8.28;73.89;99611.56;6239403;22;20020;-75
2021/11/06 07:45:12;;;;;;;0.98;0.98;;;;;;;8.32;73.80;99627.84;6262889;22;20089;-75
2021/11/06 07:47:39;;;;;;;1.40;1.40;;;;;;;8.27;73.79;99624.63;6264794;22;20016;-76
2021/11/06 07:50:05;;;;;;;0.68;0.68;;;;;;;8.31;74.21;99627.00;6264201;22;20016;-76
2021/11/06 07:52:31;;;;;;;1.00;1.00;;;;;;;8.31;73.80;99641.78;6267106;22;20020;-73
2021/11/06 07:54:57;;;;;;;12.48;2.03;;;;;;;8.29;73.98;99633.19;6278429;22;20469;-75
2021/11/06 07:57:24;;;;;;;1.08;1.08;;;;;;;8.25;74.42;99627.28;6252081;22;20023;-75
2021/11/06 07:59:50;;;;;;;16.55;1.40;;;;;;;8.30;74.78;99635.75;6278579;22;20091;-75
2021/11/06 08:02:16;;;;;;;1.08;1.08;;;;;;;8.28;73.93;99627.16;6269027;22;20043;-75
2021/11/06 08:04:43;;;;;;;1.75;1.65;;;;;;;8.29;74.11;99615.84;6267096;22;20024;-75
2021/11/06 08:07:09;;;;;;;1.30;1.30;;;;;;;8.29;74.41;99610.66;6267477;22;20099;-76
2021/11/06 08:09:35;;;;;;;0.88;0.88;;;;;;;8.27;73.40;99581.25;6241717;22;20023;-76
2021/11/06 08:12:01;;;;;;;0.60;0.60;;;;;;;8.35;72.77;99601.69;6265499;22;20085;-74
2021/11/06 08:14:27;;;;;;;0.82;0.82;;;;;;;8.38;73.33;99610.19;6213102;22;20023;-76
2021/11/06 08:16:56;;;;;;;1.83;1.73;;;;;;;8.35;73.57;99601.69;6264772;22;20020;-76
2021/11/06 08:19:25;;;;;;;2.83;2.60;;;;;;;8.40;73.31;99598.88;6240829;22;20016;-76
2021/11/06 08:21:52;;;;;;;1.20;1.20;;;;;;;8.43;73.92;99612.56;6265926;22;20015;-74
2021/11/06 08:24:19;;;;;;;1.50;1.40;;;;;;;8.44;73.46;99590.84;6268126;22;20020;-74
2021/11/06 08:26:46;;;;;;;1.15;1.15;;;;;;;8.44;73.26;99592.59;6269110;22;20015;-74
2021/11/06 08:29:13;;;;;;;1.00;1.00;;;;;;;8.40;73.50;99596.25;6268466;22;20164;-74
2021/11/06 08:31:39;;;;;;;1.30;1.30;;;;;;;8.36;73.50;99598.19;6270661;22;20070;-74
2021/11/06 08:34:05;;;;;;;0.90;0.90;;;;;;;8.45;73.81;99591.66;6266201;22;20027;-76
2021/11/06 08:36:31;;;;;;;1.65;1.58;;;;;;;8.40;73.43;99588.47;6241110;22;20098;-74
2021/11/06 08:38:57;;;;;;;0.95;0.95;;;;;;;8.39;73.48;99592.81;6267667;22;20508;-75
2021/11/06 08:41:23;;;;;;;1.00;1.00;;;;;;;8.32;73.97;99579.28;6240543;22;20458;-81
2021/11/06 08:43:51;;;;;;;0.90;0.90;;;;;;;8.36;73.90;99600.78;6265848;22;20077;-75
2021/11/06 08:46:18;;;;;;;1.70;1.70;;;;;;;8.35;73.77;99622.50;6217106;22;20020;-75
2021/11/06 08:48:44;;;;;;;2.28;2.15;;;;;;;8.32;74.65;99613.09;6265508;22;20471;-76
2021/11/06 08:51:10;;;;;;;0.80;0.80;;;;;;;8.31;73.83;99606.19;6215225;22;20560;-74
2021/11/06 08:53:35;;;;;;;1.17;1.17;;;;;;;8.26;74.44;99605.56;6262956;22;20020;-76
2021/11/06 08:56:02;;;;;;;1.40;1.40;;;;;;;8.26;73.87;99581.31;6267035;22;20016;-75
2021/11/06 08:58:27;;;;;;;1.15;1.15;;;;;;;8.25;74.29;99588.28;6267680;22;20126;-76
2021/11/06 09:00:55;;;;;;;1.45;1.45;;;;;;;8.22;74.23;99567.63;6272492;22;20104;-78
2021/11/06 09:03:23;;;;;;;1.50;1.42;;;;;;;8.25;74.52;99572.66;6270840;22;20020;-75
2021/11/06 09:05:51;;;;;;;1.23;0.80;;;;;;;8.30;73.96;99555.13;6240913;22;20744;-76
2021/11/06 09:08:18;;;;;;;1.27;1.27;;;;;;;8.22;74.21;99552.03;6267413;22;20016;-75
2021/11/06 09:10:45;;;;;;;0.90;0.90;;;;;;;8.34;73.89;99571.41;6242980;22;20409;-75
2021/11/06 09:13:11;;;;;;;0.68;0.68;;;;;;;8.32;73.64;99571.47;6269626;22;20068;-75
2021/11/06 09:15:37;;;;;;;0.82;0.82;;;;;;;8.31;73.86;99575.00;6242239;22;20089;-76
2021/11/06 09:18:03;;;;;;;1.00;1.00;;;;;;;8.34;73.80;99559.22;6268177;22;20019;-76
2021/11/06 09:20:30;;;;;;;0.80;0.80;;;;;;;8.30;73.60;99568.13;6267625;22;20061;-76
2021/11/06 09:22:56;;;;;;;0.68;0.68;;;;;;;8.34;73.26;99567.03;6266417;22;20024;-75
2021/11/06 09:25:22;;;;;;;1.10;1.10;;;;;;;8.32;73.98;99560.22;6267151;22;20459;-74
2021/11/06 09:27:48;;;;;;;0.60;0.60;;;;;;;8.31;73.32;99550.78;6271004;22;20034;-76
2021/11/06 09:30:14;;;;;;;1.75;1.65;;;;;;;8.32;73.36;99550.69;6269992;22;20012;-75
2021/11/06 09:32:40;;;;;;;2.30;2.20;;;;;;;8.38;73.12;99543.50;6269178;22;20431;-74
2021/11/06 09:35:07;;;;;;;1.23;1.23;;;;;;;8.48;72.29;99529.06;6244896;22;20070;-74
2021/11/06 09:37:33;;;;;;;1.02;1.02;;;;;;;8.73;71.80;99535.56;6244322;22;20098;-76
2021/11/06 09:39:59;;;;;;;0.73;0.73;;;;;;;8.86;70.78;99538.34;6270039;22;20021;-76
2021/11/06 09:42:25;;;;;;;1.23;1.23;;;;;;;8.89;71.31;99528.63;6270671;22;20359;-74
2021/11/06 09:44:51;;;;;;;1.08;1.08;;;;;;;9.10;70.29;99504.94;6269797;22;20023;-75
2021/11/06 09:47:18;;;;;;;1.15;1.15;;;;;;;9.24;70.24;99507.63;6219633;22;20043;-74
2021/11/06 09:49:45;;;;;;;0.70;0.52;;;;;;;9.06;69.56;99509.50;6271614;22;20015;-76
2021/11/06 09:52:13;;;;;;;0.77;0.77;;;;;;;9.08;69.52;99499.81;6271354;22;20026;-75
2021/11/06 09:54:42;;;;;;;0.70;0.70;;;;;;;9.08;69.72;99496.38;6268619;22;20019;-75
2021/11/06 09:57:09;;;;;;;1.38;1.38;;;;;;;9.20;70.20;99495.69;6269105;22;20107;-75
2021/11/06 09:59:35;;;;;;;1.33;1.33;;;;;;;9.37;69.71;99491.25;6271003;22;20015;-75
2021/11/06 10:02:01;;;;;;;5.78;1.25;;;;;;;9.28;69.03;99504.78;6269286;22;20095;-76
2021/11/06 10:04:29;;;;;;;2.60;1.05;;;;;;;9.18;69.75;99506.22;6271963;22;20098;-75
2021/11/06 10:06:58;;;;;;;0.88;0.88;;;;;;;9.00;70.07;99501.97;6271759;22;20478;-75
2021/11/06 10:09:25;;;;;;;1.65;1.58;;;;;;;8.92;70.76;99511.97;6271618;22;20011;-75
2021/11/06 10:11:52;;;;;;;0.95;0.95;;;;;;;8.93;70.76;99511.06;6279270;22;20072;-76
2021/11/06 10:14:26;;;;;;;1.90;1.80;;;;;;;9.17;70.19;99499.31;6256721;22;20467;-75
2021/11/06 10:16:59;;;;;;;0.82;0.82;;;;;;;9.31;68.74;99512.44;6280208;22;20086;-75
2021/11/06 10:19:33;;;;;;;0.90;0.90;;;;;;;9.34;68.95;99490.56;6245695;22;20031;-77
2021/11/06 10:22:12;;;;;;;0.77;0.77;;;;;;;9.34;68.88;99501.84;6243819;22;20091;-75
2021/11/06 10:24:48;;;;;;;1.13;1.13;;;;;;;9.61;68.29;99498.59;6270845;22;20080;-76
2021/11/06 10:27:19;;;;;;;0.65;0.65;;;;;;;9.48;67.92;99505.44;6270751;22;20115;-76
2021/11/06 10:30:05;;;;;;;1.35;1.35;;;;;;;9.39;68.07;99510.22;6244136;22;20034;-76
2021/11/06 10:32:33;;;;;;;0.80;0.80;;;;;;;9.47;68.68;99509.81;6244930;22;20091;-76
2021/11/06 10:35:13;;;;;;;3.22;1.55;;;;;;;9.64;67.65;99511.47;6270566;22;20023;-76
2021/11/06 10:37:40;;;;;;;0.90;0.90;;;;;;;9.50;67.52;99511.38;6271134;22;20543;-76
2021/11/06 10:40:09;;;;;;;1.25;1.25;;;;;;;9.53;67.94;99506.84;6243230;22;20020;-75
2021/11/06 10:42:37;;;;;;;1.23;1.23;;;;;;;9.49;67.62;99509.72;6271427;22;20409;-75
2021/11/06 10:45:17;;;;;;;0.82;0.82;;;;;;;9.68;66.32;99497.34;6218605;22;20023;-74
2021/11/06 10:48:01;;;;;;;0.70;0.70;;;;;;;9.61;66.65;99498.59;6271262;22;20020;-75
2021/11/06 10:50:40;;;;;;;1.40;1.40;;;;;;;9.62;67.28;99482.06;6269431;22;20265;-75
2021/11/06 10:53:07;;;;;;;0.75;0.75;;;;;;;9.52;66.83;99493.94;6269152;22;20022;-75
2021/11/06 10:55:37;;;;;;;1.20;1.20;;;;;;;9.49;67.01;99494.91;6271059;22;20020;-75
2021/11/06 10:58:04;;;;;;;3.13;0.93;;;;;;;9.45;67.14;99493.44;6220998;22;20103;-75
2021/11/06 11:00:31;;;;;;;0.93;0.93;;;;;;;9.53;67.15;99485.16;6195503;22;20012;-76
2021/11/06 11:03:28;;;;;;;1.55;1.55;;;;;;;9.49;67.36;99497.50;6270551;22;20050;-76
2021/11/06 11:05:58;;;;;;;0.70;0.70;;;;;;;9.37;67.48;99506.88;6243367;22;20022;-76
2021/11/06 11:08:25;;;;;;;0.50;0.50;;;;;;;9.26;65.73;99470.16;6269675;22;20448;-75
2021/11/06 11:10:51;;;;;;;0.70;0.70;;;;;;;9.31;65.54;99491.59;6269489;22;20016;-75
2021/11/06 11:13:22;;;;;;;0.70;0.70;;;;;;;9.20;66.32;99493.94;6269405;22;20179;-75
2021/11/06 11:15:50;;;;;;;0.52;0.52;;;;;;;9.13;66.19;99483.97;6269461;22;20061;-76
2021/11/06 11:18:32;;;;;;;0.95;0.95;;;;;;;9.10;66.49;99497.97;6266862;22;20021;-75
2021/11/06 11:21:27;;;;;;;0.93;0.93;;;;;;;9.10;66.28;99487.53;6267730;22;20020;-75
2021/11/06 11:23:59;;;;;;;0.60;0.60;;;;;;;9.10;65.39;99495.34;6268884;22;20094;-78
2021/11/06 11:26:34;;;;;;;0.60;0.60;;;;;;;9.14;65.94;99496.88;6217952;22;20434;-76
2021/11/06 11:29:02;;;;;;;0.98;0.98;;;;;;;9.16;66.11;99486.38;6270281;22;20089;-76
2021/11/06 11:31:29;;;;;;;0.90;0.90;;;;;;;9.22;64.70;99509.47;6269684;22;20011;-75
2021/11/06 11:33:57;;;;;;;0.80;0.80;;;;;;;9.21;64.37;99484.34;6268534;22;20020;-75
2021/11/06 11:36:28;;;;;;;0.50;0.50;;;;;;;9.23;64.30;99485.09;6269174;22;20093;-75
2021/11/06 11:38:56;;;;;;;0.63;0.63;;;;;;;9.27;64.43;99474.44;6234959;22;20066;-74
2021/11/06 11:41:43;;;;;;;0.63;0.63;;;;;;;9.28;64.70;99512.59;6268619;22;20015;-75